Paul, Nebraska
Current Conditions -  °F | °C
As of 12:35 PM on Sunday 21 Dec 2014 (Local Time) from KAFK Reporting Station
Haze Haze  
Wind Chill: 32°   Ceiling: 800
Heat Index: 40°   Visibility: 5mi
Dew Point: 40°   Wind: 17mph
Humidity: 99%   Direction: 190°S
Pressure: 29.82"   Gusts: 22mph
Location:  40.6534°N, 95.8738°W
Report Text: KAFK 211835Z AUTO 19015G19KT 5SM BR OVC008 05/05 A2982 RMK AO2 T00470046
Loading
Personal Weather Stations






























Interactive Weather Map New forecast layout! Learn more

10-Day Weather Forecast

Advertisements
Track Severe Weather on mobile